Kriti I — SZRD — position and weather

sailwx.info

Track history (hours):
 
Tides and Currents Weather Stations Pressure Air Temp Water Temp Dewpoint Dewpoint Depression Visibility Wind Speed Wind Dir Waves Ship Positions

Kriti I

Last reported at 2018-Feb-19 21:59 UTC. Time now 2018-Feb-19 22:10 UTC.
Position N 37°59' E 013°42'.

Length 204 m; draft 6.9 m.

Type: Passenger vessel. MMSI: 237022000.

Date/timePositionNaut miles runAvg speedWind from/ knotsBaromVisibWave heightAir tempDewpointWater temp
2018-Feb-19 21:59N 37°59' E 013°42'0 0.0
2018-Feb-19 21:29N 37°59' E 013°42'0 0.0
2018-Feb-19 21:00N 37°59' E 013°42'0 0.0
2018-Feb-19 20:30N 37°59' E 013°42'0 0.0
2018-Feb-19 20:00N 37°59' E 013°42'0 0.0
2018-Feb-19 19:31N 37°59' E 013°42'0 0.0
2018-Feb-19 18:58N 37°59' E 013°42'0 0.0
2018-Feb-19 18:28N 37°59' E 013°42'0 0.0
2018-Feb-19 17:59N 37°59' E 013°42'0 0.0
2018-Feb-19 17:29N 37°59' E 013°42'0 0.0
2018-Feb-19 16:59N 37°59' E 013°42'0 0.0
2018-Feb-19 16:30N 37°59' E 013°42'0 0.0
2018-Feb-19 16:00N 37°59' E 013°42'0 0.0
2018-Feb-19 15:30N 37°59' E 013°42'0 0.0
2018-Feb-19 15:01N 37°59' E 013°42'0 0.0
2018-Feb-19 14:28N 37°59' E 013°42'0 0.0
2018-Feb-19 13:58N 37°59' E 013°42'0 0.0
2018-Feb-19 13:29N 37°59' E 013°42'0 0.0
2018-Feb-19 12:59N 37°59' E 013°42'0 0.0
2018-Feb-19 12:23N 37°59' E 013°42'0 0.0
2018-Feb-19 12:00N 37°59' E 013°42'0 0.0
2018-Feb-19 11:30N 37°59' E 013°42'0 0.0
2018-Feb-19 11:00N 37°59' E 013°42'0 0.0
2018-Feb-19 10:28N 37°59' E 013°42'0 0.0
2018-Feb-19 09:58N 37°59' E 013°42'0 0.0
2018-Feb-19 09:28N 37°59' E 013°42'1 1.7
2018-Feb-19 09:00N 37°59' E 013°43'815.4
2018-Feb-19 08:30N 38°07' E 013°41'1021.0
2018-Feb-19 08:00N 38°16' E 013°36'1121.6
2018-Feb-19 07:30N 38°26' E 013°31'1121.5
2018-Feb-19 07:00N 38°36' E 013°26'1221.8
2018-Feb-19 06:28N 38°48' E 013°21'4 0.1
2018-Feb-18 04:04N 38°51' E 013°19'220.6
2018-Feb-18 03:59N 38°49' E 013°20'1020.4
2018-Feb-18 03:31N 38°40' E 013°25'1020.1
2018-Feb-18 03:00N 38°31' E 013°29'1020.1
2018-Feb-18 02:30N 38°21' E 013°34'1020.3
2018-Feb-18 02:00N 38°12' E 013°38'1020.2
2018-Feb-18 01:30N 38°02' E 013°43'3 5.3
2018-Feb-18 00:58N 37°59' E 013°42'0 0.0
2018-Feb-18 00:28N 37°59' E 013°42'0 0.0
2018-Feb-17 23:58N 37°59' E 013°42'0 0.0
2018-Feb-17 23:29N 37°59' E 013°42'0 0.0
2018-Feb-17 22:59N 37°59' E 013°42'0 0.0
2018-Feb-17 22:29N 37°59' E 013°42'0 0.0
2018-Feb-17 22:00N 37°59' E 013°42'0 0.1
2018-Feb-17 21:30N 37°59' E 013°42'2 4.2
2018-Feb-17 21:00N 38°01' E 013°44'1020.5
2018-Feb-17 20:30N 38°11' E 013°46'1020.1
2018-Feb-17 20:00N 38°21' E 013°48'1020.3
2018-Feb-17 19:29N 38°31' E 013°50'12220.8
2018-Feb-17 13:38N 40°33' E 014°09'221.0
2018-Feb-17 13:31N 40°35' E 014°10'1020.8
2018-Feb-17 13:00N 40°45' E 014°15'6 1.3
2018-Feb-17 08:36N 40°50' E 014°16'0 0.0
2018-Feb-17 08:13N 40°50' E 014°16'0 1.0
2018-Feb-17 07:59N 40°50' E 014°16'511.3
2018-Feb-17 07:30N 40°45' E 014°16'1020.6
2018-Feb-17 07:01N 40°36' E 014°10'11621.2
2018-Feb-17 01:32N 38°40' E 013°51'121.7
2018-Feb-17 01:30N 38°40' E 013°51'1121.8
2018-Feb-17 01:00N 38°29' E 013°48'1121.7
2018-Feb-17 00:30N 38°18' E 013°47'1021.2
2018-Feb-17 00:00N 38°08' E 013°45'917.5
2018-Feb-16 23:30N 37°59' E 013°43'1 1.3
2018-Feb-16 22:59N 37°59' E 013°42'0 0.0
2018-Feb-16 22:20N 37°59' E 013°42'0 0.0
2018-Feb-16 21:59N 37°59' E 013°42'0 0.0
2018-Feb-16 21:30N 37°59' E 013°42'1 2.4
2018-Feb-16 21:00N 38°00' E 013°44'918.9
2018-Feb-16 20:31N 38°09' E 013°40'1020.3
2018-Feb-16 20:00N 38°19' E 013°35'1021.0
2018-Feb-16 19:30N 38°28' E 013°30'1121.9
2018-Feb-16 19:00N 38°38' E 013°25'10 0.3
2018-Feb-15 04:48N 38°48' E 013°20'518.5
2018-Feb-15 04:31N 38°43' E 013°23'918.3
2018-Feb-15 04:00N 38°34' E 013°27'918.6
2018-Feb-15 03:31N 38°26' E 013°31'1019.1
2018-Feb-15 03:01N 38°17' E 013°36'918.7
2018-Feb-15 02:31N 38°08' E 013°40'917.5
2018-Feb-15 02:00N 37°60' E 013°44'1 2.4
2018-Feb-15 01:28N 37°59' E 013°42'0 0.0
2018-Feb-15 00:58N 37°59' E 013°42'0 0.0
2018-Feb-15 00:28N 37°59' E 013°42'0 0.0
2018-Feb-14 23:59N 37°59' E 013°42'0 0.0
2018-Feb-14 23:29N 37°59' E 013°42'0 0.0
2018-Feb-14 22:59N 37°59' E 013°42'0 0.0
2018-Feb-14 22:30N 37°59' E 013°42'0 0.3
2018-Feb-14 22:00N 37°59' E 013°43'3 5.1
2018-Feb-14 21:31N 38°02' E 013°43'1020.1
2018-Feb-14 21:00N 38°11' E 013°39'1019.8
2018-Feb-14 20:31N 38°20' E 013°34'1020.2
2018-Feb-14 20:01N 38°30' E 013°29'1020.5
2018-Feb-14 19:31N 38°39' E 013°24'10 0.2
2018-Feb-13 03:54N 38°49' E 013°20'819.6
2018-Feb-13 03:31N 38°41' E 013°24'1019.6
2018-Feb-13 03:00N 38°32' E 013°28'1019.8
2018-Feb-13 02:31N 38°23' E 013°33'1020.6
2018-Feb-13 02:00N 38°13' E 013°37'1020.3
2018-Feb-13 01:30N 38°04' E 013°42'4 8.1
2018-Feb-13 00:57N 37°59' E 013°42'0 0.0
2018-Feb-13 00:28N 37°59' E 013°42'0 0.0
2018-Feb-12 23:58N 37°59' E 013°42'0 0.0
2018-Feb-12 23:28N 37°59' E 013°42'0 0.0
2018-Feb-12 22:59N 37°59' E 013°42'0 0.0
2018-Feb-12 22:29N 37°59' E 013°42'0 0.0
2018-Feb-12 21:59N 37°59' E 013°42'0 0.0
2018-Feb-12 21:24N 37°59' E 013°42'0 0.0
2018-Feb-12 21:00N 37°59' E 013°42'0 0.0
2018-Feb-12 20:30N 37°59' E 013°42'0 0.0
2018-Feb-12 19:58N 37°59' E 013°42'0 0.0
2018-Feb-12 19:28N 37°59' E 013°42'0 0.0
2018-Feb-12 18:58N 37°59' E 013°42'0 0.0
2018-Feb-12 18:29N 37°59' E 013°42'0 0.0
2018-Feb-12 17:59N 37°59' E 013°42'0 0.0
2018-Feb-12 17:29N 37°59' E 013°42'0 0.0
2018-Feb-12 16:57N 37°59' E 013°42'0 0.0
2018-Feb-12 16:30N 37°59' E 013°42'0 0.0
2018-Feb-12 15:51N 37°59' E 013°42'0 0.0
2018-Feb-12 15:16N 37°59' E 013°42'0 0.0
2018-Feb-12 14:58N 37°59' E 013°42'0 0.0
2018-Feb-12 14:28N 37°59' E 013°42'0 0.0
2018-Feb-12 13:59N 37°59' E 013°42'0 0.0
2018-Feb-12 13:29N 37°59' E 013°42'0 0.0
2018-Feb-12 12:59N 37°59' E 013°42'0 0.0
2018-Feb-12 12:30N 37°59' E 013°42'0 0.0
2018-Feb-12 12:00N 37°59' E 013°42'0 0.0
2018-Feb-12 11:30N 37°59' E 013°42'0 0.0
2018-Feb-12 10:58N 37°59' E 013°42'0 0.0
2018-Feb-12 10:28N 37°59' E 013°42'0 0.0
2018-Feb-12 09:58N 37°59' E 013°42'0 0.0
2018-Feb-12 09:29N 37°59' E 013°42'1 1.8
2018-Feb-12 09:00N 37°59' E 013°43'815.8
2018-Feb-12 08:30N 38°07' E 013°41'1019.9
2018-Feb-12 08:00N 38°16' E 013°37'1020.2
2018-Feb-12 07:30N 38°26' E 013°32'1020.4
2018-Feb-12 07:01N 38°35' E 013°27'1020.7
2018-Feb-12 06:31N 38°45' E 013°22'5 0.2
2018-Feb-11 04:09N 38°50' E 013°19'319.0
2018-Feb-11 04:00N 38°47' E 013°21'918.9
2018-Feb-11 03:30N 38°38' E 013°25'1019.2
2018-Feb-11 03:00N 38°29' E 013°30'1019.3
2018-Feb-11 02:30N 38°20' E 013°34'1019.6
2018-Feb-11 02:00N 38°11' E 013°38'1019.4
2018-Feb-11 01:30N 38°02' E 013°43'3 4.9
2018-Feb-11 00:58N 37°59' E 013°42'0 0.0
2018-Feb-11 00:28N 37°59' E 013°42'0 0.0
2018-Feb-10 23:59N 37°59' E 013°42'0 0.0
2018-Feb-10 23:29N 37°59' E 013°42'0 0.0
2018-Feb-10 22:59N 37°59' E 013°42'0 0.0
2018-Feb-10 22:30N 37°59' E 013°42'0 0.0
2018-Feb-10 22:00N 37°59' E 013°42'0 0.3
2018-Feb-10 21:30N 37°59' E 013°42'510.7
2018-Feb-10 21:01N 38°04' E 013°45'1020.3
2018-Feb-10 20:31N 38°14' E 013°47'1020.6
2018-Feb-10 20:00N 38°25' E 013°48'1020.7
2018-Feb-10 19:31N 38°35' E 013°50'11920.6
2018-Feb-10 13:44N 40°33' E 014°09'521.0
2018-Feb-10 13:30N 40°37' E 014°11'1121.0
2018-Feb-10 13:00N 40°47' E 014°17'4 1.0
2018-Feb-10 09:31N 40°50' E 014°16'0 0.0
2018-Feb-10 09:08N 40°50' E 014°16'0 0.1
2018-Feb-10 09:00N 40°50' E 014°16'2 2.7
2018-Feb-10 08:24N 40°49' E 014°17'717.1
2018-Feb-10 08:00N 40°43' E 014°15'1019.9
2018-Feb-10 07:30N 40°33' E 014°09'11120.6
2018-Feb-10 02:06N 38°43' E 013°51'320.6
2018-Feb-10 01:59N 38°41' E 013°51'1020.5
2018-Feb-10 01:30N 38°31' E 013°49'1020.3
2018-Feb-10 01:00N 38°21' E 013°47'1020.1
2018-Feb-10 00:30N 38°11' E 013°46'1019.8
2018-Feb-10 00:00N 38°01' E 013°44'3 4.9
2018-Feb-09 23:30N 37°59' E 013°42'0 0.0
2018-Feb-09 23:00N 37°59' E 013°42'0 0.0
2018-Feb-09 22:45N 37°59' E 013°42'0 0.0
2018-Feb-09 22:01N 37°59' E 013°42'  
Track history (hours):
 
Tides and Currents Weather Stations Pressure Air Temp Water Temp Dewpoint Dewpoint Depression Visibility Wind Speed Wind Dir Waves Ship Positions

Kriti I

Last reported at 2018-Feb-19 21:59 UTC. Time now 2018-Feb-19 22:10 UTC.
Position N 37°59' E 013°42'.

Length 204 m; draft 6.9 m.

Type: Passenger vessel. MMSI: 237022000.

Date/timePositionNaut miles runAvg speedWind from/ knotsBaromVisibWave heightAir tempDewpointWater temp
2018-Feb-19 21:59N 37°59' E 013°42'0 0.0
2018-Feb-19 21:29N 37°59' E 013°42'0 0.0
2018-Feb-19 21:00N 37°59' E 013°42'0 0.0
2018-Feb-19 20:30N 37°59' E 013°42'0 0.0
2018-Feb-19 20:00N 37°59' E 013°42'0 0.0
2018-Feb-19 19:31N 37°59' E 013°42'0 0.0
2018-Feb-19 18:58N 37°59' E 013°42'0 0.0
2018-Feb-19 18:28N 37°59' E 013°42'0 0.0
2018-Feb-19 17:59N 37°59' E 013°42'0 0.0
2018-Feb-19 17:29N 37°59' E 013°42'0 0.0
2018-Feb-19 16:59N 37°59' E 013°42'0 0.0
2018-Feb-19 16:30N 37°59' E 013°42'0 0.0
2018-Feb-19 16:00N 37°59' E 013°42'0 0.0
2018-Feb-19 15:30N 37°59' E 013°42'0 0.0
2018-Feb-19 15:01N 37°59' E 013°42'0 0.0
2018-Feb-19 14:28N 37°59' E 013°42'0 0.0
2018-Feb-19 13:58N 37°59' E 013°42'0 0.0
2018-Feb-19 13:29N 37°59' E 013°42'0 0.0
2018-Feb-19 12:59N 37°59' E 013°42'0 0.0
2018-Feb-19 12:23N 37°59' E 013°42'0 0.0
2018-Feb-19 12:00N 37°59' E 013°42'0 0.0
2018-Feb-19 11:30N 37°59' E 013°42'0 0.0
2018-Feb-19 11:00N 37°59' E 013°42'0 0.0
2018-Feb-19 10:28N 37°59' E 013°42'0 0.0
2018-Feb-19 09:58N 37°59' E 013°42'0 0.0
2018-Feb-19 09:28N 37°59' E 013°42'1 1.7
2018-Feb-19 09:00N 37°59' E 013°43'815.4
2018-Feb-19 08:30N 38°07' E 013°41'1021.0
2018-Feb-19 08:00N 38°16' E 013°36'1121.6
2018-Feb-19 07:30N 38°26' E 013°31'1121.5
2018-Feb-19 07:00N 38°36' E 013°26'1221.8
2018-Feb-19 06:28N 38°48' E 013°21'4 0.1
2018-Feb-18 04:04N 38°51' E 013°19'220.6
2018-Feb-18 03:59N 38°49' E 013°20'1020.4
2018-Feb-18 03:31N 38°40' E 013°25'1020.1
2018-Feb-18 03:00N 38°31' E 013°29'1020.1
2018-Feb-18 02:30N 38°21' E 013°34'1020.3
2018-Feb-18 02:00N 38°12' E 013°38'1020.2
2018-Feb-18 01:30N 38°02' E 013°43'3 5.3
2018-Feb-18 00:58N 37°59' E 013°42'0 0.0
2018-Feb-18 00:28N 37°59' E 013°42'0 0.0
2018-Feb-17 23:58N 37°59' E 013°42'0 0.0
2018-Feb-17 23:29N 37°59' E 013°42'0 0.0
2018-Feb-17 22:59N 37°59' E 013°42'0 0.0
2018-Feb-17 22:29N 37°59' E 013°42'0 0.0
2018-Feb-17 22:00N 37°59' E 013°42'0 0.1
2018-Feb-17 21:30N 37°59' E 013°42'2 4.2
2018-Feb-17 21:00N 38°01' E 013°44'1020.5
2018-Feb-17 20:30N 38°11' E 013°46'1020.1
2018-Feb-17 20:00N 38°21' E 013°48'1020.3
2018-Feb-17 19:29N 38°31' E 013°50'12220.8
2018-Feb-17 13:38N 40°33' E 014°09'221.0
2018-Feb-17 13:31N 40°35' E 014°10'1020.8
2018-Feb-17 13:00N 40°45' E 014°15'6 1.3
2018-Feb-17 08:36N 40°50' E 014°16'0 0.0
2018-Feb-17 08:13N 40°50' E 014°16'0 1.0
2018-Feb-17 07:59N 40°50' E 014°16'511.3
2018-Feb-17 07:30N 40°45' E 014°16'1020.6
2018-Feb-17 07:01N 40°36' E 014°10'11621.2
2018-Feb-17 01:32N 38°40' E 013°51'121.7
2018-Feb-17 01:30N 38°40' E 013°51'1121.8
2018-Feb-17 01:00N 38°29' E 013°48'1121.7
2018-Feb-17 00:30N 38°18' E 013°47'1021.2
2018-Feb-17 00:00N 38°08' E 013°45'917.5
2018-Feb-16 23:30N 37°59' E 013°43'1 1.3
2018-Feb-16 22:59N 37°59' E 013°42'0 0.0
2018-Feb-16 22:20N 37°59' E 013°42'0 0.0
2018-Feb-16 21:59N 37°59' E 013°42'0 0.0
2018-Feb-16 21:30N 37°59' E 013°42'1 2.4
2018-Feb-16 21:00N 38°00' E 013°44'918.9
2018-Feb-16 20:31N 38°09' E 013°40'1020.3
2018-Feb-16 20:00N 38°19' E 013°35'1021.0
2018-Feb-16 19:30N 38°28' E 013°30'1121.9
2018-Feb-16 19:00N 38°38' E 013°25'10 0.3
2018-Feb-15 04:48N 38°48' E 013°20'518.5
2018-Feb-15 04:31N 38°43' E 013°23'918.3
2018-Feb-15 04:00N 38°34' E 013°27'918.6
2018-Feb-15 03:31N 38°26' E 013°31'1019.1
2018-Feb-15 03:01N 38°17' E 013°36'918.7
2018-Feb-15 02:31N 38°08' E 013°40'917.5
2018-Feb-15 02:00N 37°60' E 013°44'1 2.4
2018-Feb-15 01:28N 37°59' E 013°42'0 0.0
2018-Feb-15 00:58N 37°59' E 013°42'0 0.0
2018-Feb-15 00:28N 37°59' E 013°42'0 0.0
2018-Feb-14 23:59N 37°59' E 013°42'0 0.0
2018-Feb-14 23:29N 37°59' E 013°42'0 0.0
2018-Feb-14 22:59N 37°59' E 013°42'0 0.0
2018-Feb-14 22:30N 37°59' E 013°42'0 0.3
2018-Feb-14 22:00N 37°59' E 013°43'3 5.1
2018-Feb-14 21:31N 38°02' E 013°43'1020.1
2018-Feb-14 21:00N 38°11' E 013°39'1019.8
2018-Feb-14 20:31N 38°20' E 013°34'1020.2
2018-Feb-14 20:01N 38°30' E 013°29'1020.5
2018-Feb-14 19:31N 38°39' E 013°24'10 0.2
2018-Feb-13 03:54N 38°49' E 013°20'819.6
2018-Feb-13 03:31N 38°41' E 013°24'1019.6
2018-Feb-13 03:00N 38°32' E 013°28'1019.8
2018-Feb-13 02:31N 38°23' E 013°33'1020.6
2018-Feb-13 02:00N 38°13' E 013°37'1020.3
2018-Feb-13 01:30N 38°04' E 013°42'4 8.1
2018-Feb-13 00:57N 37°59' E 013°42'0 0.0
2018-Feb-13 00:28N 37°59' E 013°42'0 0.0
2018-Feb-12 23:58N 37°59' E 013°42'0 0.0
2018-Feb-12 23:28N 37°59' E 013°42'0 0.0
2018-Feb-12 22:59N 37°59' E 013°42'0 0.0
2018-Feb-12 22:29N 37°59' E 013°42'0 0.0
2018-Feb-12 21:59N 37°59' E 013°42'0 0.0
2018-Feb-12 21:24N 37°59' E 013°42'0 0.0
2018-Feb-12 21:00N 37°59' E 013°42'0 0.0
2018-Feb-12 20:30N 37°59' E 013°42'0 0.0
2018-Feb-12 19:58N 37°59' E 013°42'0 0.0
2018-Feb-12 19:28N 37°59' E 013°42'0 0.0
2018-Feb-12 18:58N 37°59' E 013°42'0 0.0
2018-Feb-12 18:29N 37°59' E 013°42'0 0.0
2018-Feb-12 17:59N 37°59' E 013°42'0 0.0
2018-Feb-12 17:29N 37°59' E 013°42'0 0.0
2018-Feb-12 16:57N 37°59' E 013°42'0 0.0
2018-Feb-12 16:30N 37°59' E 013°42'0 0.0
2018-Feb-12 15:51N 37°59' E 013°42'0 0.0
2018-Feb-12 15:16N 37°59' E 013°42'0 0.0
2018-Feb-12 14:58N 37°59' E 013°42'0 0.0
2018-Feb-12 14:28N 37°59' E 013°42'0 0.0
2018-Feb-12 13:59N 37°59' E 013°42'0 0.0
2018-Feb-12 13:29N 37°59' E 013°42'0 0.0
2018-Feb-12 12:59N 37°59' E 013°42'0 0.0
2018-Feb-12 12:30N 37°59' E 013°42'0 0.0
2018-Feb-12 12:00N 37°59' E 013°42'0 0.0
2018-Feb-12 11:30N 37°59' E 013°42'0 0.0
2018-Feb-12 10:58N 37°59' E 013°42'0 0.0
2018-Feb-12 10:28N 37°59' E 013°42'0 0.0
2018-Feb-12 09:58N 37°59' E 013°42'0 0.0
2018-Feb-12 09:29N 37°59' E 013°42'1 1.8
2018-Feb-12 09:00N 37°59' E 013°43'815.8
2018-Feb-12 08:30N 38°07' E 013°41'1019.9
2018-Feb-12 08:00N 38°16' E 013°37'1020.2
2018-Feb-12 07:30N 38°26' E 013°32'1020.4
2018-Feb-12 07:01N 38°35' E 013°27'1020.7
2018-Feb-12 06:31N 38°45' E 013°22'5 0.2
2018-Feb-11 04:09N 38°50' E 013°19'319.0
2018-Feb-11 04:00N 38°47' E 013°21'918.9
2018-Feb-11 03:30N 38°38' E 013°25'1019.2
2018-Feb-11 03:00N 38°29' E 013°30'1019.3
2018-Feb-11 02:30N 38°20' E 013°34'1019.6
2018-Feb-11 02:00N 38°11' E 013°38'1019.4
2018-Feb-11 01:30N 38°02' E 013°43'3 4.9
2018-Feb-11 00:58N 37°59' E 013°42'0 0.0
2018-Feb-11 00:28N 37°59' E 013°42'0 0.0
2018-Feb-10 23:59N 37°59' E 013°42'0 0.0
2018-Feb-10 23:29N 37°59' E 013°42'0 0.0
2018-Feb-10 22:59N 37°59' E 013°42'0 0.0
2018-Feb-10 22:30N 37°59' E 013°42'0 0.0
2018-Feb-10 22:00N 37°59' E 013°42'0 0.3
2018-Feb-10 21:30N 37°59' E 013°42'510.7
2018-Feb-10 21:01N 38°04' E 013°45'1020.3
2018-Feb-10 20:31N 38°14' E 013°47'1020.6
2018-Feb-10 20:00N 38°25' E 013°48'1020.7
2018-Feb-10 19:31N 38°35' E 013°50'11920.6
2018-Feb-10 13:44N 40°33' E 014°09'521.0
2018-Feb-10 13:30N 40°37' E 014°11'1121.0
2018-Feb-10 13:00N 40°47' E 014°17'4 1.0
2018-Feb-10 09:31N 40°50' E 014°16'0 0.0
2018-Feb-10 09:08N 40°50' E 014°16'0 0.1
2018-Feb-10 09:00N 40°50' E 014°16'2 2.7
2018-Feb-10 08:24N 40°49' E 014°17'717.1
2018-Feb-10 08:00N 40°43' E 014°15'1019.9
2018-Feb-10 07:30N 40°33' E 014°09'11120.6
2018-Feb-10 02:06N 38°43' E 013°51'320.6
2018-Feb-10 01:59N 38°41' E 013°51'1020.5
2018-Feb-10 01:30N 38°31' E 013°49'1020.3
2018-Feb-10 01:00N 38°21' E 013°47'1020.1
2018-Feb-10 00:30N 38°11' E 013°46'1019.8
2018-Feb-10 00:00N 38°01' E 013°44'3 4.9
2018-Feb-09 23:30N 37°59' E 013°42'0 0.0
2018-Feb-09 23:00N 37°59' E 013°42'0 0.0
2018-Feb-09 22:45N 37°59' E 013°42'0 0.0
2018-Feb-09 22:01N 37°59' E 013°42'  

Dump ship's entire track history